createdAt,value
2019-05-11T00:00:00.795Z,5.70
2019-05-11T00:02:30.741Z,6.60
2019-05-11T00:05:00.762Z,5.93
2019-05-11T00:07:31.027Z,7.00
2019-05-11T00:10:00.936Z,6.40
2019-05-11T00:12:31.036Z,9.67
2019-05-11T00:15:01.100Z,8.17
2019-05-11T00:17:30.983Z,7.63
2019-05-11T00:20:01.017Z,6.43
2019-05-11T00:22:30.947Z,4.70
2019-05-11T00:25:00.857Z,6.63
2019-05-11T00:27:31.068Z,7.67
2019-05-11T00:30:01.078Z,6.80
2019-05-11T00:32:31.132Z,8.87
2019-05-11T00:35:01.472Z,7.00
2019-05-11T00:37:31.479Z,5.83
2019-05-11T00:40:14.055Z,5.87
2019-05-11T00:42:33.139Z,6.67
2019-05-11T00:45:03.183Z,5.23
2019-05-11T00:47:33.239Z,4.60
2019-05-11T00:50:03.347Z,5.30
2019-05-11T00:52:33.376Z,6.73
2019-05-11T00:55:03.411Z,4.53
2019-05-11T00:57:33.363Z,3.93
2019-05-11T01:00:03.319Z,4.70
2019-05-11T01:02:33.291Z,5.10
2019-05-11T01:05:03.342Z,5.40
2019-05-11T01:07:33.323Z,4.37
2019-05-11T01:10:03.322Z,6.90
2019-05-11T01:12:33.245Z,6.53
2019-05-11T01:15:03.287Z,4.30
2019-05-11T01:17:33.241Z,10.90
2019-05-11T01:20:03.308Z,9.40
2019-05-11T01:22:33.250Z,5.97
2019-05-11T01:25:03.204Z,4.47
2019-05-11T01:27:33.277Z,9.77
2019-05-11T01:30:03.292Z,5.03
2019-05-11T01:32:33.315Z,6.60
2019-05-11T01:35:03.697Z,4.90
2019-05-11T01:37:33.651Z,5.77
2019-05-11T01:40:03.724Z,4.87
2019-05-11T01:42:33.672Z,8.93
2019-05-11T01:45:03.709Z,4.20
2019-05-11T01:47:33.666Z,4.90
2019-05-11T01:50:03.697Z,5.17
2019-05-11T01:52:33.735Z,3.77
2019-05-11T01:55:03.772Z,4.53
2019-05-11T01:57:33.728Z,6.53
2019-05-11T02:00:04.150Z,6.63
2019-05-11T02:02:34.399Z,7.00
2019-05-11T02:05:22.218Z,9.10
2019-05-11T02:07:52.194Z,5.33
2019-05-11T02:10:22.216Z,7.80
2019-05-11T02:12:52.172Z,5.50
2019-05-11T02:15:22.211Z,4.80
2019-05-11T02:17:52.162Z,5.17
2019-05-11T02:20:22.435Z,5.00
2019-05-11T02:22:52.369Z,4.77
2019-05-11T02:25:22.407Z,4.97
2019-05-11T02:27:52.336Z,3.67
2019-05-11T02:30:22.478Z,3.40
2019-05-11T02:32:52.487Z,2.87
2019-05-11T02:35:22.536Z,5.93
2019-05-11T02:37:52.621Z,3.87
2019-05-11T02:40:22.736Z,8.10
2019-05-11T02:42:52.671Z,6.00
2019-05-11T02:45:39.860Z,5.50
2019-05-11T02:48:10.559Z,5.73
2019-05-11T02:50:40.609Z,5.40
2019-05-11T02:53:10.888Z,5.60
2019-05-11T02:55:40.963Z,6.30
2019-05-11T02:58:10.980Z,7.10
2019-05-11T03:00:42.610Z,5.63
2019-05-11T03:03:12.689Z,6.77
2019-05-11T03:05:42.628Z,8.37
2019-05-11T03:08:12.653Z,7.83
2019-05-11T03:10:42.662Z,7.03
2019-05-11T03:13:12.667Z,9.77
2019-05-11T03:15:42.688Z,9.70
2019-05-11T03:18:12.643Z,9.47
2019-05-11T03:20:42.858Z,11.23
2019-05-11T03:23:12.951Z,7.93
2019-05-11T03:25:42.980Z,9.63
2019-05-11T03:28:12.991Z,11.13
2019-05-11T03:30:43.044Z,9.93
2019-05-11T03:33:13.116Z,10.00
2019-05-11T03:35:43.122Z,13.07
2019-05-11T03:38:13.157Z,9.17
2019-05-11T03:40:43.088Z,11.70
2019-05-11T03:43:13.137Z,11.97
2019-05-11T03:45:43.073Z,10.83
2019-05-11T03:48:13.022Z,10.50
2019-05-11T03:50:43.123Z,12.63
2019-05-11T03:53:13.168Z,14.37
2019-05-11T03:55:43.143Z,11.97
2019-05-11T03:58:13.169Z,11.17
2019-05-11T04:00:43.195Z,10.40
2019-05-11T04:03:13.253Z,12.00
2019-05-11T04:05:43.312Z,12.20
2019-05-11T04:08:13.285Z,15.23
2019-05-11T04:10:43.319Z,13.63
2019-05-11T04:13:13.297Z,14.73
2019-05-11T04:15:43.307Z,11.63
2019-05-11T04:18:13.284Z,11.23
2019-05-11T04:20:43.304Z,10.83
2019-05-11T04:23:13.339Z,11.77
2019-05-11T04:25:43.776Z,16.27
2019-05-11T04:28:13.804Z,13.20
2019-05-11T04:30:43.819Z,15.00
2019-05-11T04:33:13.883Z,15.90
2019-05-11T04:35:43.985Z,16.73
2019-05-11T04:38:14.046Z,20.80
2019-05-11T04:40:44.060Z,20.97
2019-05-11T04:43:14.032Z,19.17
2019-05-11T04:45:43.988Z,20.50
2019-05-11T04:48:14.018Z,18.43
2019-05-11T04:50:43.892Z,21.67
2019-05-11T04:53:13.959Z,21.53
2019-05-11T04:55:43.963Z,20.63
2019-05-11T04:58:13.994Z,20.43
2019-05-11T05:00:43.883Z,19.20
2019-05-11T05:03:13.949Z,23.53
2019-05-11T05:05:43.978Z,25.90
2019-05-11T05:08:14.038Z,22.50
2019-05-11T05:10:44.222Z,23.43
2019-05-11T05:13:14.266Z,22.93
2019-05-11T05:15:44.212Z,23.87
2019-05-11T05:18:14.258Z,24.50
2019-05-11T05:20:44.303Z,23.90
2019-05-11T05:23:14.338Z,26.03
2019-05-11T05:25:44.383Z,22.77
2019-05-11T05:28:14.343Z,22.50
2019-05-11T05:30:44.364Z,19.30
2019-05-11T05:33:14.452Z,23.20
2019-05-11T05:35:44.412Z,20.30
2019-05-11T05:38:14.610Z,22.13
2019-05-11T05:40:44.636Z,25.33
2019-05-11T05:43:25.960Z,24.87
2019-05-11T05:45:46.226Z,18.33
2019-05-11T05:48:16.327Z,20.20
2019-05-11T05:50:46.353Z,19.27
2019-05-11T05:53:16.382Z,19.00
2019-05-11T05:55:46.392Z,22.00
2019-05-11T05:58:16.427Z,19.93
2019-05-11T06:00:46.443Z,21.10
2019-05-11T06:03:16.406Z,21.77
2019-05-11T06:05:46.440Z,17.30
2019-05-11T06:08:16.543Z,19.57
2019-05-11T06:10:46.579Z,19.47
2019-05-11T06:13:16.683Z,18.23
2019-05-11T06:15:46.963Z,18.10
2019-05-11T06:18:16.962Z,16.23
2019-05-11T06:20:47.148Z,16.43
2019-05-11T06:23:17.183Z,16.73
2019-05-11T06:25:47.294Z,17.97
2019-05-11T06:28:17.317Z,17.30
2019-05-11T06:30:47.352Z,15.27
2019-05-11T06:33:17.323Z,20.10
2019-05-11T06:35:47.415Z,17.13
2019-05-11T06:38:17.491Z,15.90
2019-05-11T06:40:47.516Z,18.83
2019-05-11T06:43:17.576Z,17.20
2019-05-11T06:45:47.548Z,16.50
2019-05-11T06:48:17.432Z,13.67
2019-05-11T06:50:47.483Z,12.43
2019-05-11T06:53:17.457Z,13.27
2019-05-11T06:55:47.537Z,19.07
2019-05-11T06:58:17.585Z,17.40
2019-05-11T07:00:47.715Z,18.63
2019-05-11T07:03:17.687Z,18.43
2019-05-11T07:05:47.745Z,20.53
2019-05-11T07:08:17.747Z,17.37
2019-05-11T07:10:47.803Z,20.40
2019-05-11T07:13:17.764Z,14.90
2019-05-11T07:15:47.732Z,22.73
2019-05-11T07:18:17.792Z,20.73
2019-05-11T07:20:50.757Z,21.17
2019-05-11T07:23:19.559Z,20.97
2019-05-11T07:25:49.687Z,19.23
2019-05-11T07:28:19.675Z,18.23
2019-05-11T07:30:49.682Z,18.67
2019-05-11T07:33:19.718Z,15.73
2019-05-11T07:35:49.854Z,11.63
2019-05-11T07:38:19.811Z,14.83
2019-05-11T07:40:49.767Z,17.60
2019-05-11T07:43:19.658Z,17.50
2019-05-11T07:45:49.698Z,19.47
2019-05-11T07:48:19.731Z,19.10
2019-05-11T07:50:49.803Z,15.47
2019-05-11T07:53:19.891Z,20.23
2019-05-11T07:55:49.953Z,17.47
2019-05-11T07:58:20.614Z,21.07
2019-05-11T08:00:50.658Z,23.10
2019-05-11T08:03:20.670Z,26.87
2019-05-11T08:05:50.637Z,22.37
2019-05-11T08:08:20.675Z,20.07
2019-05-11T08:10:50.806Z,19.20
2019-05-11T08:13:20.926Z,28.33
2019-05-11T08:15:51.027Z,29.87
2019-05-11T08:18:21.071Z,21.60
2019-05-11T08:20:51.120Z,24.87
2019-05-11T08:23:21.058Z,27.00
2019-05-11T08:25:54.233Z,30.70
2019-05-11T08:28:22.660Z,27.87
2019-05-11T08:30:52.694Z,25.10
2019-05-11T08:33:22.719Z,25.70
2019-05-11T08:35:53.414Z,26.73
2019-05-11T08:38:24.161Z,20.27
2019-05-11T08:40:55.158Z,20.00
2019-05-11T08:43:25.209Z,23.97
2019-05-11T08:45:57.596Z,23.27
2019-05-11T08:48:28.411Z,23.93
2019-05-11T08:50:58.694Z,23.60
2019-05-11T08:53:29.466Z,25.83
2019-05-11T08:55:59.902Z,20.83
2019-05-11T08:58:30.119Z,18.93
2019-05-11T09:01:01.328Z,21.47
2019-05-11T09:03:32.045Z,19.77
2019-05-11T09:06:03.114Z,18.07
2019-05-11T09:08:33.536Z,14.80
2019-05-11T09:11:04.345Z,17.67
2019-05-11T09:13:34.461Z,17.07
2019-05-11T09:16:05.027Z,19.10
2019-05-11T09:18:35.525Z,22.00
2019-05-11T09:21:08.404Z,15.50
2019-05-11T09:23:40.667Z,16.77
2019-05-11T09:26:10.080Z,19.30
2019-05-11T09:28:40.407Z,16.03
2019-05-11T09:31:11.465Z,18.73
2019-05-11T09:33:41.627Z,19.60
2019-05-11T09:36:12.601Z,16.50
2019-05-11T09:38:42.667Z,14.33
2019-05-11T09:41:12.623Z,20.27
2019-05-11T09:43:42.661Z,19.10
2019-05-11T09:46:12.632Z,18.00
2019-05-11T09:48:42.681Z,20.37
2019-05-11T09:51:12.943Z,20.93
2019-05-11T09:53:42.992Z,21.37
2019-05-11T09:56:13.038Z,25.17
2019-05-11T09:58:43.071Z,22.43
2019-05-11T10:01:13.057Z,20.07
2019-05-11T10:03:43.156Z,20.43
2019-05-11T10:06:13.225Z,20.07
2019-05-11T10:08:43.326Z,19.80
2019-05-11T10:11:13.372Z,18.60
2019-05-11T10:13:43.468Z,15.07
2019-05-11T10:16:13.508Z,16.77
2019-05-11T10:18:43.427Z,16.07
2019-05-11T10:21:13.483Z,17.10
2019-05-11T10:23:43.429Z,17.07
2019-05-11T10:26:18.579Z,16.90
2019-05-11T10:28:48.464Z,20.20
2019-05-11T10:31:18.963Z,24.20
2019-05-11T10:33:49.258Z,23.70
2019-05-11T10:36:19.526Z,25.57
2019-05-11T10:38:49.584Z,21.83
2019-05-11T10:41:19.614Z,18.03
2019-05-11T10:43:49.701Z,17.03
2019-05-11T10:46:23.321Z,18.23
2019-05-11T10:48:51.607Z,19.83
2019-05-11T10:51:21.584Z,23.03
2019-05-11T10:53:52.206Z,17.23
2019-05-11T10:56:22.303Z,18.33
2019-05-11T10:58:52.346Z,18.20
2019-05-11T11:01:22.747Z,20.33
2019-05-11T11:03:52.855Z,20.83
2019-05-11T11:06:23.075Z,22.67
2019-05-11T11:08:53.127Z,20.30
2019-05-11T11:11:23.235Z,20.93
2019-05-11T11:13:53.310Z,20.17
2019-05-11T11:16:35.591Z,23.13
2019-05-11T11:18:55.226Z,22.90
2019-05-11T11:21:27.726Z,24.33
2019-05-11T11:23:58.738Z,22.93
2019-05-11T11:26:29.024Z,22.00
2019-05-11T11:28:59.168Z,18.93
2019-05-11T11:31:29.287Z,17.07
2019-05-11T11:33:59.442Z,16.57
2019-05-11T11:36:29.586Z,17.43
2019-05-11T11:38:59.765Z,16.87
2019-05-11T11:41:30.108Z,15.50
2019-05-11T11:44:00.317Z,17.70
2019-05-11T11:46:30.383Z,15.50
2019-05-11T11:49:00.459Z,13.90
2019-05-11T11:51:30.540Z,16.80
2019-05-11T11:54:00.764Z,15.77
2019-05-11T11:56:30.907Z,16.67
2019-05-11T11:59:00.983Z,17.87
2019-05-11T12:01:31.321Z,18.07
2019-05-11T12:04:01.435Z,16.30
2019-05-11T12:06:31.560Z,17.30
2019-05-11T12:09:01.689Z,16.53
2019-05-11T12:11:31.891Z,16.30
2019-05-11T12:14:01.971Z,16.10
2019-05-11T12:16:32.089Z,17.43
2019-05-11T12:19:05.208Z,17.50
2019-05-11T12:21:33.959Z,14.70
2019-05-11T12:24:04.001Z,15.80
2019-05-11T12:26:34.356Z,16.43
2019-05-11T12:29:04.416Z,14.93
2019-05-11T12:31:34.615Z,15.27
2019-05-11T12:34:04.742Z,14.50
2019-05-11T12:36:34.825Z,13.40
2019-05-11T12:39:08.338Z,13.40
2019-05-11T12:41:41.176Z,14.97
2019-05-11T12:44:11.276Z,12.73
2019-05-11T12:46:41.379Z,12.43
2019-05-11T12:49:11.596Z,12.20
2019-05-11T12:51:41.731Z,11.90
2019-05-11T12:54:11.779Z,12.20
2019-05-11T12:56:41.883Z,9.47
2019-05-11T12:59:11.956Z,11.40
2019-05-11T13:01:41.980Z,8.60
2019-05-11T13:04:11.968Z,9.20
2019-05-11T13:06:42.149Z,9.07
2019-05-11T13:09:12.167Z,8.40
2019-05-11T13:11:42.226Z,8.57
2019-05-11T13:14:12.250Z,9.90
2019-05-11T13:16:42.299Z,8.90
2019-05-11T13:19:12.400Z,10.47
2019-05-11T13:21:42.582Z,9.83
2019-05-11T13:24:12.899Z,10.73
2019-05-11T13:26:42.939Z,10.50
2019-05-11T13:29:13.303Z,11.43
2019-05-11T13:31:43.327Z,12.10
2019-05-11T13:34:13.395Z,11.07
2019-05-11T13:36:43.363Z,11.10
2019-05-11T13:39:13.436Z,11.47
2019-05-11T13:41:43.588Z,10.43
2019-05-11T13:44:13.652Z,11.10
2019-05-11T13:46:43.734Z,9.53
2019-05-11T13:49:13.831Z,8.20
2019-05-11T13:51:43.948Z,8.30
2019-05-11T13:54:13.977Z,8.27
2019-05-11T13:56:44.034Z,8.07
2019-05-11T13:59:14.190Z,8.03
2019-05-11T14:01:44.286Z,7.00
2019-05-11T14:04:14.407Z,6.30
2019-05-11T14:06:44.529Z,6.53
2019-05-11T14:09:14.600Z,6.63
2019-05-11T14:11:45.075Z,5.13
2019-05-11T14:14:15.123Z,6.27
2019-05-11T14:16:45.311Z,6.77
2019-05-11T14:19:17.602Z,7.27
2019-05-11T14:21:49.031Z,6.90
2019-05-11T14:24:18.962Z,6.10
2019-05-11T14:26:49.002Z,5.33
2019-05-11T14:29:19.319Z,5.97
2019-05-11T14:31:49.421Z,5.40
2019-05-11T14:34:19.832Z,5.50
2019-05-11T14:36:49.959Z,5.07
2019-05-11T14:39:20.056Z,5.10
2019-05-11T14:41:50.371Z,5.20
2019-05-11T14:44:20.443Z,5.40
2019-05-11T14:46:50.631Z,4.70
2019-05-11T14:49:21.556Z,5.03
2019-05-11T14:51:51.703Z,5.10
2019-05-11T14:54:21.756Z,5.27
2019-05-11T14:56:51.808Z,5.17
2019-05-11T14:59:21.935Z,4.63
2019-05-11T15:01:52.128Z,4.90
2019-05-11T15:04:22.148Z,4.90
2019-05-11T15:06:52.112Z,4.90
2019-05-11T15:09:23.050Z,5.20
2019-05-11T15:11:53.171Z,4.80
2019-05-11T15:14:23.161Z,4.47
2019-05-11T15:16:53.204Z,4.53
2019-05-11T15:19:23.452Z,3.70
2019-05-11T15:21:53.459Z,3.80
2019-05-11T15:24:23.776Z,3.90
2019-05-11T15:26:53.840Z,4.00
2019-05-11T15:29:23.895Z,4.00
2019-05-11T15:31:53.957Z,3.37
2019-05-11T15:34:24.319Z,3.77
2019-05-11T15:36:54.324Z,3.50
2019-05-11T15:39:24.786Z,3.40
2019-05-11T15:42:07.349Z,3.63
2019-05-11T15:44:28.554Z,3.47
2019-05-11T15:46:58.539Z,3.20
2019-05-11T15:49:29.058Z,3.60
2019-05-11T15:51:59.695Z,2.83
2019-05-11T15:54:30.231Z,3.10
2019-05-11T15:57:01.023Z,3.10
2019-05-11T15:59:31.053Z,2.70
2019-05-11T16:02:01.570Z,2.90
2019-05-11T16:04:31.672Z,3.23
2019-05-11T16:07:02.184Z,2.90
2019-05-11T16:09:32.587Z,3.10
2019-05-11T16:12:02.740Z,3.50
2019-05-11T16:14:32.885Z,2.97
2019-05-11T16:17:02.846Z,3.10
2019-05-11T16:19:32.897Z,3.17
2019-05-11T16:22:03.149Z,2.90
2019-05-11T16:24:33.232Z,3.50
2019-05-11T16:27:03.256Z,3.17
2019-05-11T16:29:33.373Z,3.07
2019-05-11T16:32:03.559Z,3.10
2019-05-11T16:34:34.021Z,3.43
2019-05-11T16:37:05.449Z,3.33
2019-05-11T16:39:38.340Z,3.87
2019-05-11T16:42:08.517Z,3.17
2019-05-11T16:44:38.983Z,3.10
2019-05-11T16:47:09.076Z,2.73
2019-05-11T16:49:39.122Z,3.07
2019-05-11T16:52:10.202Z,2.90
2019-05-11T16:54:42.138Z,3.00
2019-05-11T16:57:12.491Z,3.03
2019-05-11T16:59:42.567Z,3.13
2019-05-11T17:02:12.703Z,3.33
2019-05-11T17:04:42.726Z,3.13
2019-05-11T17:07:12.791Z,3.20
2019-05-11T17:09:42.843Z,2.97
2019-05-11T17:12:12.886Z,3.10
2019-05-11T17:14:58.537Z,3.00
2019-05-11T17:17:29.067Z,3.37
2019-05-11T17:19:59.431Z,3.33
2019-05-11T17:22:29.719Z,3.77
2019-05-11T17:24:59.808Z,2.70
2019-05-11T17:27:29.843Z,2.97
2019-05-11T17:29:59.907Z,2.70
2019-05-11T17:32:30.624Z,2.73
2019-05-11T17:35:01.663Z,3.30
2019-05-11T17:37:31.819Z,2.30
2019-05-11T17:40:01.918Z,2.60
2019-05-11T17:42:31.880Z,2.67
2019-05-11T17:45:01.983Z,2.80
2019-05-11T17:47:32.042Z,2.77
2019-05-11T17:50:03.960Z,3.50
2019-05-11T17:52:33.743Z,2.00
2019-05-11T17:55:03.834Z,2.63
2019-05-11T17:57:34.000Z,2.20
2019-05-11T18:00:04.159Z,2.83
2019-05-11T18:02:34.230Z,3.17
2019-05-11T18:05:04.433Z,2.20
2019-05-11T18:07:34.595Z,2.37
2019-05-11T18:10:04.643Z,2.67
2019-05-11T18:12:34.916Z,2.50
2019-05-11T18:15:07.974Z,2.90
2019-05-11T18:17:37.332Z,2.20
2019-05-11T18:20:16.893Z,2.40
2019-05-11T18:22:40.432Z,2.63
2019-05-11T18:25:13.826Z,2.33
2019-05-11T18:27:42.483Z,2.70
2019-05-11T18:30:12.874Z,2.33
2019-05-11T18:32:43.040Z,2.20
2019-05-11T18:35:13.337Z,2.37
2019-05-11T18:37:43.446Z,2.77
2019-05-11T18:40:13.699Z,2.57
2019-05-11T18:42:43.799Z,2.57
2019-05-11T18:45:14.040Z,2.30
2019-05-11T18:47:44.139Z,2.20
2019-05-11T18:50:29.310Z,2.50
2019-05-11T18:52:49.012Z,2.20
2019-05-11T18:55:19.281Z,1.90
2019-05-11T18:57:49.580Z,2.23
2019-05-11T19:00:20.446Z,2.23
2019-05-11T19:02:50.849Z,2.33
2019-05-11T19:05:20.901Z,2.30
2019-05-11T19:07:50.992Z,2.20
2019-05-11T19:10:21.584Z,2.10
2019-05-11T19:12:51.718Z,2.27
2019-05-11T19:15:22.704Z,2.63
2019-05-11T19:17:53.047Z,2.40
2019-05-11T19:20:23.105Z,2.63
2019-05-11T19:22:53.765Z,2.53
2019-05-11T19:25:23.850Z,2.10
2019-05-11T19:27:53.900Z,2.33
2019-05-11T19:30:23.847Z,2.23
2019-05-11T19:32:53.842Z,2.60
2019-05-11T19:35:24.035Z,3.00
2019-05-11T19:37:54.140Z,2.50
2019-05-11T19:40:24.181Z,2.60
2019-05-11T19:42:55.116Z,3.00
2019-05-11T19:45:25.580Z,3.27
2019-05-11T19:47:57.764Z,2.40
2019-05-11T19:50:28.225Z,2.47
2019-05-11T19:52:58.312Z,2.90
2019-05-11T19:55:28.710Z,2.60
2019-05-11T19:57:59.269Z,2.77
2019-05-11T20:00:29.409Z,2.90
2019-05-11T20:02:59.500Z,2.30
2019-05-11T20:05:29.699Z,1.80
2019-05-11T20:08:00.234Z,2.97
2019-05-11T20:10:30.279Z,3.27
2019-05-11T20:13:00.334Z,2.67
2019-05-11T20:15:30.393Z,3.10
2019-05-11T20:18:00.331Z,2.40
2019-05-11T20:20:30.483Z,2.50
2019-05-11T20:23:00.644Z,2.43
2019-05-11T20:25:30.541Z,2.27
2019-05-11T20:28:00.588Z,2.40
2019-05-11T20:30:31.478Z,2.20
2019-05-11T20:33:02.264Z,2.60
2019-05-11T20:35:33.094Z,2.10
2019-05-11T20:38:03.591Z,2.83
2019-05-11T20:40:33.957Z,2.50
2019-05-11T20:43:04.056Z,2.47
2019-05-11T20:45:34.646Z,2.37
2019-05-11T20:48:05.040Z,2.20
2019-05-11T20:50:37.744Z,2.20
2019-05-11T20:53:08.578Z,1.77
2019-05-11T20:55:39.454Z,1.87
2019-05-11T20:58:09.973Z,2.20
2019-05-11T21:00:40.755Z,2.10
2019-05-11T21:03:11.234Z,1.77
2019-05-11T21:05:41.748Z,2.03
2019-05-11T21:08:12.670Z,2.00
2019-05-11T21:10:43.295Z,1.80
2019-05-11T21:13:13.992Z,1.60
2019-05-11T21:15:44.408Z,1.70
2019-05-11T21:18:14.544Z,2.37
2019-05-11T21:20:44.632Z,1.37
2019-05-11T21:23:14.647Z,1.73
2019-05-11T21:25:44.798Z,2.10
2019-05-11T21:28:14.840Z,1.77
2019-05-11T21:30:44.879Z,1.80
2019-05-11T21:33:17.750Z,1.67
2019-05-11T21:35:48.891Z,1.50
2019-05-11T21:38:19.067Z,1.60
2019-05-11T21:40:49.292Z,1.63
2019-05-11T21:43:19.343Z,2.00
2019-05-11T21:45:49.429Z,1.80
2019-05-11T21:48:19.392Z,1.90
2019-05-11T21:50:49.459Z,1.50
2019-05-11T21:53:19.624Z,1.50
2019-05-11T21:55:49.631Z,1.73
2019-05-11T21:58:19.679Z,1.87
2019-05-11T22:00:50.674Z,2.00
2019-05-11T22:03:20.695Z,2.17
2019-05-11T22:05:51.465Z,1.60
2019-05-11T22:08:21.628Z,1.23
2019-05-11T22:10:51.910Z,1.80
2019-05-11T22:13:22.012Z,1.10
2019-05-11T22:15:52.058Z,1.03
2019-05-11T22:18:30.974Z,1.70
2019-05-11T22:20:53.891Z,1.60
2019-05-11T22:23:23.870Z,1.87
2019-05-11T22:25:53.932Z,2.17
2019-05-11T22:28:23.958Z,1.60
2019-05-11T22:30:54.007Z,1.73
2019-05-11T22:33:24.060Z,1.70
2019-05-11T22:35:54.118Z,1.63
2019-05-11T22:38:24.140Z,1.40
2019-05-11T22:40:54.412Z,1.90
2019-05-11T22:43:24.483Z,2.00
2019-05-11T22:45:54.511Z,1.50
2019-05-11T22:48:24.466Z,1.90
2019-05-11T22:50:54.542Z,2.33
2019-05-11T22:53:24.555Z,1.90
2019-05-11T22:55:54.508Z,1.47
2019-05-11T22:58:24.458Z,1.80
2019-05-11T23:00:54.500Z,1.80
2019-05-11T23:03:24.498Z,1.73
2019-05-11T23:05:54.525Z,1.90
2019-05-11T23:08:24.487Z,1.40
2019-05-11T23:10:54.514Z,1.43
2019-05-11T23:13:24.523Z,1.77
2019-05-11T23:15:54.535Z,1.57
2019-05-11T23:18:24.479Z,1.70
2019-05-11T23:20:54.523Z,1.30
2019-05-11T23:23:24.634Z,1.90
2019-05-11T23:25:54.571Z,1.93
2019-05-11T23:28:24.533Z,1.40
2019-05-11T23:30:54.566Z,2.40
2019-05-11T23:33:24.568Z,1.40
2019-05-11T23:35:54.604Z,1.10
2019-05-11T23:38:25.163Z,1.70
2019-05-11T23:40:55.112Z,2.07
2019-05-11T23:43:25.125Z,1.90
2019-05-11T23:45:55.152Z,1.60
2019-05-11T23:48:25.100Z,1.77
2019-05-11T23:50:55.090Z,1.60
2019-05-11T23:53:25.050Z,1.40
2019-05-11T23:55:55.131Z,1.20
2019-05-11T23:58:25.172Z,1.50
